sensor_id;sensor_type;location;lat;lon;timestamp;pressure;altitude;pressure_sealevel;temperature;humidity
76726;BME280;65651;53.154;17.916;2023-02-12T00:01:23;102535.86;;;0.06;87.34
76726;BME280;65651;53.154;17.916;2023-02-12T00:03:51;102543.94;;;-0.01;87.45
76726;BME280;65651;53.154;17.916;2023-02-12T00:06:19;102548.16;;;-0.09;87.26
76726;BME280;65651;53.154;17.916;2023-02-12T00:08:51;102550.61;;;-0.17;87.29
76726;BME280;65651;53.154;17.916;2023-02-12T00:11:23;102551.09;;;-0.24;87.30
76726;BME280;65651;53.154;17.916;2023-02-12T00:13:51;102560.94;;;-0.31;87.44
76726;BME280;65651;53.154;17.916;2023-02-12T00:16:22;102565.84;;;-0.39;87.36
76726;BME280;65651;53.154;17.916;2023-02-12T00:18:52;102576.02;;;-0.45;87.43
76726;BME280;65651;53.154;17.916;2023-02-12T00:21:20;102577.73;;;-0.53;87.27
76726;BME280;65651;53.154;17.916;2023-02-12T00:23:48;102575.73;;;-0.60;87.39
76726;BME280;65651;53.154;17.916;2023-02-12T00:26:18;102587.09;;;-0.64;87.36
76726;BME280;65651;53.154;17.916;2023-02-12T00:28:46;102592.10;;;-0.68;87.44
76726;BME280;65651;53.154;17.916;2023-02-12T00:31:19;102595.13;;;-0.70;87.44
76726;BME280;65651;53.154;17.916;2023-02-12T00:33:48;102599.92;;;-0.72;87.58
76726;BME280;65651;53.154;17.916;2023-02-12T00:36:22;102601.75;;;-0.76;87.53
76726;BME280;65651;53.154;17.916;2023-02-12T00:38:53;102600.59;;;-0.81;87.49
76726;BME280;65651;53.154;17.916;2023-02-12T00:41:25;102610.90;;;-0.87;87.40
76726;BME280;65651;53.154;17.916;2023-02-12T00:43:52;102620.77;;;-0.87;87.39
76726;BME280;65651;53.154;17.916;2023-02-12T00:46:20;102623.61;;;-0.87;87.39
76726;BME280;65651;53.154;17.916;2023-02-12T00:48:48;102625.02;;;-0.88;87.58
76726;BME280;65651;53.154;17.916;2023-02-12T00:51:18;102629.48;;;-0.90;87.50
76726;BME280;65651;53.154;17.916;2023-02-12T00:53:45;102638.32;;;-0.93;87.50
76726;BME280;65651;53.154;17.916;2023-02-12T00:56:13;102637.16;;;-0.97;87.57
76726;BME280;65651;53.154;17.916;2023-02-12T00:58:41;102637.37;;;-1.00;87.46
76726;BME280;65651;53.154;17.916;2023-02-12T01:01:08;102644.46;;;-1.02;87.58
76726;BME280;65651;53.154;17.916;2023-02-12T01:03:36;102655.61;;;-1.06;87.52
76726;BME280;65651;53.154;17.916;2023-02-12T01:06:05;102655.52;;;-1.13;87.67
76726;BME280;65651;53.154;17.916;2023-02-12T01:08:32;102658.27;;;-1.19;87.58
76726;BME280;65651;53.154;17.916;2023-02-12T01:11:03;102657.64;;;-1.25;87.59
76726;BME280;65651;53.154;17.916;2023-02-12T01:13:32;102659.81;;;-1.31;87.49
76726;BME280;65651;53.154;17.916;2023-02-12T01:16:13;102667.13;;;-1.38;87.62
76726;BME280;65651;53.154;17.916;2023-02-12T01:18:42;102673.90;;;-1.44;87.71
76726;BME280;65651;53.154;17.916;2023-02-12T01:21:21;102675.20;;;-1.50;87.64
76726;BME280;65651;53.154;17.916;2023-02-12T01:23:50;102672.98;;;-1.55;87.70
76726;BME280;65651;53.154;17.916;2023-02-12T01:26:20;102682.89;;;-1.59;87.64
76726;BME280;65651;53.154;17.916;2023-02-12T01:28:50;102689.80;;;-1.63;87.60
76726;BME280;65651;53.154;17.916;2023-02-12T01:31:24;102695.98;;;-1.66;87.54
76726;BME280;65651;53.154;17.916;2023-02-12T01:33:54;102699.54;;;-1.69;87.66
76726;BME280;65651;53.154;17.916;2023-02-12T01:36:22;102698.67;;;-1.70;87.75
76726;BME280;65651;53.154;17.916;2023-02-12T01:38:54;102698.50;;;-1.70;87.86
76726;BME280;65651;53.154;17.916;2023-02-12T01:41:25;102697.63;;;-1.70;87.98
76726;BME280;65651;53.154;17.916;2023-02-12T01:44:13;102692.36;;;-1.71;87.78
76726;BME280;65651;53.154;17.916;2023-02-12T01:46:43;102690.22;;;-1.70;87.78
76726;BME280;65651;53.154;17.916;2023-02-12T01:49:23;102693.19;;;-1.68;87.82
76726;BME280;65651;53.154;17.916;2023-02-12T01:52:18;102688.13;;;-1.71;87.91
76726;BME280;65651;53.154;17.916;2023-02-12T01:54:48;102699.94;;;-1.74;87.93
76726;BME280;65651;53.154;17.916;2023-02-12T01:57:19;102706.47;;;-1.75;87.86
76726;BME280;65651;53.154;17.916;2023-02-12T01:59:51;102707.21;;;-1.77;87.83
76726;BME280;65651;53.154;17.916;2023-02-12T02:02:20;102707.20;;;-1.79;87.91
76726;BME280;65651;53.154;17.916;2023-02-12T02:04:59;102713.02;;;-1.78;87.88
76726;BME280;65651;53.154;17.916;2023-02-12T02:07:29;102709.35;;;-1.81;87.78
76726;BME280;65651;53.154;17.916;2023-02-12T02:09:58;102707.44;;;-1.84;87.82
76726;BME280;65651;53.154;17.916;2023-02-12T02:12:29;102712.91;;;-1.85;87.84
76726;BME280;65651;53.154;17.916;2023-02-12T02:15:17;102720.16;;;-1.88;87.88
76726;BME280;65651;53.154;17.916;2023-02-12T02:18:14;102721.77;;;-1.93;87.83
76726;BME280;65651;53.154;17.916;2023-02-12T02:21:12;102724.81;;;-1.97;87.86
76726;BME280;65651;53.154;17.916;2023-02-12T02:27:19;102733.38;;;-2.11;87.87
76726;BME280;65651;53.154;17.916;2023-02-12T02:30:15;102739.06;;;-2.18;87.83
76726;BME280;65651;53.154;17.916;2023-02-12T02:35:33;102730.37;;;-2.30;87.80
76726;BME280;65651;53.154;17.916;2023-02-12T02:41:14;102736.40;;;-2.37;87.63
76726;BME280;65651;53.154;17.916;2023-02-12T02:43:50;102747.64;;;-2.36;87.82
76726;BME280;65651;53.154;17.916;2023-02-12T02:47:07;102750.64;;;-2.36;87.97
76726;BME280;65651;53.154;17.916;2023-02-12T02:49:53;102752.38;;;-2.34;87.91
76726;BME280;65651;53.154;17.916;2023-02-12T02:52:29;102756.23;;;-2.31;88.14
76726;BME280;65651;53.154;17.916;2023-02-12T02:55:02;102757.83;;;-2.31;88.03
76726;BME280;65651;53.154;17.916;2023-02-12T02:57:40;102755.36;;;-2.31;88.03
76726;BME280;65651;53.154;17.916;2023-02-12T03:00:17;102753.25;;;-2.32;87.99
76726;BME280;65651;53.154;17.916;2023-02-12T03:02:51;102753.95;;;-2.32;88.00
76726;BME280;65651;53.154;17.916;2023-02-12T03:05:29;102757.65;;;-2.33;87.99
76726;BME280;65651;53.154;17.916;2023-02-12T03:08:03;102756.25;;;-2.35;87.91
76726;BME280;65651;53.154;17.916;2023-02-12T03:10:37;102758.57;;;-2.38;87.98
76726;BME280;65651;53.154;17.916;2023-02-12T03:13:10;102763.69;;;-2.41;88.06
76726;BME280;65651;53.154;17.916;2023-02-12T03:18:18;102770.92;;;-2.48;88.00
76726;BME280;65651;53.154;17.916;2023-02-12T03:20:53;102771.31;;;-2.52;87.98
76726;BME280;65651;53.154;17.916;2023-02-12T03:23:25;102772.21;;;-2.55;88.02
76726;BME280;65651;53.154;17.916;2023-02-12T03:28:29;102789.45;;;-2.59;87.82
76726;BME280;65651;53.154;17.916;2023-02-12T03:36:17;102801.95;;;-2.57;87.88
76726;BME280;65651;53.154;17.916;2023-02-12T03:38:52;102805.09;;;-2.55;87.94
76726;BME280;65651;53.154;17.916;2023-02-12T03:41:26;102808.43;;;-2.55;88.02
76726;BME280;65651;53.154;17.916;2023-02-12T03:44:14;102809.33;;;-2.56;88.03
76726;BME280;65651;53.154;17.916;2023-02-12T03:49:28;102820.09;;;-2.64;88.00
76726;BME280;65651;53.154;17.916;2023-02-12T03:51:57;102824.67;;;-2.67;88.09
76726;BME280;65651;53.154;17.916;2023-02-12T03:54:25;102829.07;;;-2.72;87.90
76726;BME280;65651;53.154;17.916;2023-02-12T03:57:09;102828.94;;;-2.77;87.84
76726;BME280;65651;53.154;17.916;2023-02-12T03:59:38;102832.64;;;-2.81;87.82
76726;BME280;65651;53.154;17.916;2023-02-12T04:02:07;102837.05;;;-2.86;87.95
76726;BME280;65651;53.154;17.916;2023-02-12T04:04:35;102839.88;;;-2.91;87.97
76726;BME280;65651;53.154;17.916;2023-02-12T04:07:04;102843.23;;;-2.95;87.88
76726;BME280;65651;53.154;17.916;2023-02-12T04:09:32;102845.18;;;-2.99;87.94
76726;BME280;65651;53.154;17.916;2023-02-12T04:12:39;102847.29;;;-3.01;87.78
76726;BME280;65651;53.154;17.916;2023-02-12T04:20:55;102865.90;;;-3.03;88.01
76726;BME280;65651;53.154;17.916;2023-02-12T04:26:15;102858.19;;;-3.01;87.89
76726;BME280;65651;53.154;17.916;2023-02-12T04:37:26;102878.92;;;-3.05;87.88
76726;BME280;65651;53.154;17.916;2023-02-12T04:39:58;102879.80;;;-3.08;87.99
76726;BME280;65651;53.154;17.916;2023-02-12T04:42:26;102873.14;;;-3.12;88.00
76726;BME280;65651;53.154;17.916;2023-02-12T04:44:56;102870.16;;;-3.16;87.91
76726;BME280;65651;53.154;17.916;2023-02-12T04:47:25;102875.09;;;-3.19;87.91
76726;BME280;65651;53.154;17.916;2023-02-12T04:49:52;102875.44;;;-3.22;87.97
76726;BME280;65651;53.154;17.916;2023-02-12T04:52:19;102878.95;;;-3.27;87.88
76726;BME280;65651;53.154;17.916;2023-02-12T04:54:47;102881.77;;;-3.31;87.93
76726;BME280;65651;53.154;17.916;2023-02-12T04:57:14;102888.79;;;-3.34;87.92
76726;BME280;65651;53.154;17.916;2023-02-12T04:59:42;102889.51;;;-3.38;87.92
76726;BME280;65651;53.154;17.916;2023-02-12T05:02:09;102891.60;;;-3.39;87.95
76726;BME280;65651;53.154;17.916;2023-02-12T05:04:36;102893.89;;;-3.40;87.92
76726;BME280;65651;53.154;17.916;2023-02-12T05:07:04;102897.74;;;-3.40;87.96
76726;BME280;65651;53.154;17.916;2023-02-12T05:09:31;102898.10;;;-3.38;87.78
76726;BME280;65651;53.154;17.916;2023-02-12T05:12:02;102898.11;;;-3.36;87.87
76726;BME280;65651;53.154;17.916;2023-02-12T05:14:29;102907.94;;;-3.32;87.95
76726;BME280;65651;53.154;17.916;2023-02-12T05:16:57;102911.98;;;-3.30;87.97
76726;BME280;65651;53.154;17.916;2023-02-12T05:19:24;102907.41;;;-3.29;87.97
76726;BME280;65651;53.154;17.916;2023-02-12T05:21:52;102912.84;;;-3.27;87.92
76726;BME280;65651;53.154;17.916;2023-02-12T05:24:20;102914.60;;;-3.27;87.82
76726;BME280;65651;53.154;17.916;2023-02-12T05:26:49;102915.48;;;-3.26;87.95
76726;BME280;65651;53.154;17.916;2023-02-12T05:29:17;102924.45;;;-3.25;87.91
76726;BME280;65651;53.154;17.916;2023-02-12T05:31:44;102932.00;;;-3.24;87.93
76726;BME280;65651;53.154;17.916;2023-02-12T05:34:12;102933.76;;;-3.25;87.91
76726;BME280;65651;53.154;17.916;2023-02-12T05:36:40;102940.08;;;-3.24;87.95
76726;BME280;65651;53.154;17.916;2023-02-12T05:39:07;102939.02;;;-3.22;87.88
76726;BME280;65651;53.154;17.916;2023-02-12T05:41:35;102938.66;;;-3.20;87.90
76726;BME280;65651;53.154;17.916;2023-02-12T05:44:03;102943.93;;;-3.16;87.95
76726;BME280;65651;53.154;17.916;2023-02-12T05:46:31;102943.76;;;-3.12;88.09
76726;BME280;65651;53.154;17.916;2023-02-12T05:48:59;102945.67;;;-3.08;87.92
76726;BME280;65651;53.154;17.916;2023-02-12T05:51:27;102947.95;;;-3.04;88.03
76726;BME280;65651;53.154;17.916;2023-02-12T05:53:57;102941.64;;;-3.00;87.98
76726;BME280;65651;53.154;17.916;2023-02-12T05:56:28;102942.15;;;-2.98;88.04
76726;BME280;65651;53.154;17.916;2023-02-12T05:59:01;102944.42;;;-2.96;88.14
76726;BME280;65651;53.154;17.916;2023-02-12T06:01:35;102952.33;;;-2.94;87.92
76726;BME280;65651;53.154;17.916;2023-02-12T06:04:05;102953.75;;;-2.94;87.97
76726;BME280;65651;53.154;17.916;2023-02-12T06:06:34;102954.96;;;-2.92;88.09
76726;BME280;65651;53.154;17.916;2023-02-12T06:09:02;102956.19;;;-2.91;88.07
76726;BME280;65651;53.154;17.916;2023-02-12T06:11:29;102955.13;;;-2.90;88.02
76726;BME280;65651;53.154;17.916;2023-02-12T06:13:57;102961.10;;;-2.89;88.03
76726;BME280;65651;53.154;17.916;2023-02-12T06:16:26;102966.56;;;-2.87;87.92
76726;BME280;65651;53.154;17.916;2023-02-12T06:18:55;102976.05;;;-2.87;88.05
76726;BME280;65651;53.154;17.916;2023-02-12T06:21:26;102974.64;;;-2.91;87.98
76726;BME280;65651;53.154;17.916;2023-02-12T06:23:54;102976.39;;;-2.90;87.87
76726;BME280;65651;53.154;17.916;2023-02-12T06:26:23;102977.98;;;-2.90;87.84
76726;BME280;65651;53.154;17.916;2023-02-12T06:28:51;102980.27;;;-2.84;87.84
76726;BME280;65651;53.154;17.916;2023-02-12T06:31:25;102984.65;;;-2.77;87.75
76726;BME280;65651;53.154;17.916;2023-02-12T06:33:56;102981.65;;;-2.72;87.87
76726;BME280;65651;53.154;17.916;2023-02-12T06:36:24;102986.21;;;-2.67;87.93
76726;BME280;65651;53.154;17.916;2023-02-12T06:38:52;102987.98;;;-2.64;87.69
76726;BME280;65651;53.154;17.916;2023-02-12T06:41:20;102990.06;;;-2.61;87.80
76726;BME280;65651;53.154;17.916;2023-02-12T06:43:48;102986.88;;;-2.57;87.73
76726;BME280;65651;53.154;17.916;2023-02-12T06:46:16;102983.19;;;-2.52;87.74
76726;BME280;65651;53.154;17.916;2023-02-12T06:48:44;102984.21;;;-2.47;87.51
76726;BME280;65651;53.154;17.916;2023-02-12T06:51:16;102988.26;;;-2.42;87.80
76726;BME280;65651;53.154;17.916;2023-02-12T06:53:44;102988.24;;;-2.37;87.72
76726;BME280;65651;53.154;17.916;2023-02-12T06:56:12;102987.86;;;-2.32;87.78
76726;BME280;65651;53.154;17.916;2023-02-12T06:58:43;102992.06;;;-2.26;87.53
76726;BME280;65651;53.154;17.916;2023-02-12T07:01:19;102993.64;;;-2.24;87.69
76726;BME280;65651;53.154;17.916;2023-02-12T07:03:49;102996.45;;;-2.18;87.58
76726;BME280;65651;53.154;17.916;2023-02-12T07:06:17;103006.61;;;-2.09;87.53
76726;BME280;65651;53.154;17.916;2023-02-12T07:08:46;103011.14;;;-2.00;87.53
76726;BME280;65651;53.154;17.916;2023-02-12T07:11:13;103009.88;;;-1.94;87.61
76726;BME280;65651;53.154;17.916;2023-02-12T07:13:41;103007.91;;;-1.85;87.54
76726;BME280;65651;53.154;17.916;2023-02-12T07:16:12;103012.43;;;-1.74;87.47
76726;BME280;65651;53.154;17.916;2023-02-12T07:18:41;103012.88;;;-1.59;87.63
76726;BME280;65651;53.154;17.916;2023-02-12T07:21:12;103018.19;;;-1.37;87.51
76726;BME280;65651;53.154;17.916;2023-02-12T07:23:41;103019.77;;;-1.14;87.45
76726;BME280;65651;53.154;17.916;2023-02-12T07:26:12;103017.96;;;-0.86;87.31
76726;BME280;65651;53.154;17.916;2023-02-12T07:28:41;103021.55;;;-0.55;87.28
76726;BME280;65651;53.154;17.916;2023-02-12T07:31:20;103019.52;;;-0.30;87.24
76726;BME280;65651;53.154;17.916;2023-02-12T07:33:48;103024.77;;;-0.11;87.27
76726;BME280;65651;53.154;17.916;2023-02-12T07:36:17;103024.50;;;-0.03;87.19
76726;BME280;65651;53.154;17.916;2023-02-12T07:38:47;103022.27;;;0.05;87.14
76726;BME280;65651;53.154;17.916;2023-02-12T07:41:27;103033.00;;;0.09;87.06
76726;BME280;65651;53.154;17.916;2023-02-12T07:43:58;103035.59;;;0.14;87.31
76726;BME280;65651;53.154;17.916;2023-02-12T07:46:29;103036.41;;;0.18;87.07
76726;BME280;65651;53.154;17.916;2023-02-12T07:48:59;103038.27;;;0.25;87.23
76726;BME280;65651;53.154;17.916;2023-02-12T07:51:27;103039.61;;;0.30;87.14
76726;BME280;65651;53.154;17.916;2023-02-12T07:53:55;103043.25;;;0.35;87.01
76726;BME280;65651;53.154;17.916;2023-02-12T07:56:24;103039.42;;;0.44;87.06
76726;BME280;65651;53.154;17.916;2023-02-12T07:59:00;103044.73;;;0.57;86.98
76726;BME280;65651;53.154;17.916;2023-02-12T08:01:33;103048.30;;;0.66;87.00
76726;BME280;65651;53.154;17.916;2023-02-12T08:04:11;103047.93;;;0.78;87.14
76726;BME280;65651;53.154;17.916;2023-02-12T08:06:43;103048.05;;;0.94;87.13
76726;BME280;65651;53.154;17.916;2023-02-12T08:09:15;103047.98;;;1.09;86.94
76726;BME280;65651;53.154;17.916;2023-02-12T08:11:43;103052.16;;;1.23;86.98
76726;BME280;65651;53.154;17.916;2023-02-12T08:14:12;103048.08;;;1.34;86.70
76726;BME280;65651;53.154;17.916;2023-02-12T08:16:42;103049.38;;;1.41;86.71
76726;BME280;65651;53.154;17.916;2023-02-12T08:19:10;103044.98;;;1.50;86.63
76726;BME280;65651;53.154;17.916;2023-02-12T08:21:38;103045.05;;;1.55;86.60
76726;BME280;65651;53.154;17.916;2023-02-12T08:24:05;103048.81;;;1.62;86.57
76726;BME280;65651;53.154;17.916;2023-02-12T08:26:35;103052.53;;;1.62;86.48
76726;BME280;65651;53.154;17.916;2023-02-12T08:29:06;103054.83;;;1.62;86.32
76726;BME280;65651;53.154;17.916;2023-02-12T08:31:45;103053.15;;;1.67;86.19
76726;BME280;65651;53.154;17.916;2023-02-12T08:34:20;103049.63;;;1.75;86.03
76726;BME280;65651;53.154;17.916;2023-02-12T08:36:49;103046.32;;;1.82;86.37
76726;BME280;65651;53.154;17.916;2023-02-12T08:39:17;103044.83;;;1.86;86.28
76726;BME280;65651;53.154;17.916;2023-02-12T08:41:45;103051.13;;;1.98;86.00
76726;BME280;65651;53.154;17.916;2023-02-12T08:44:14;103050.37;;;2.10;86.11
76726;BME280;65651;53.154;17.916;2023-02-12T08:46:47;103052.32;;;2.18;86.02
76726;BME280;65651;53.154;17.916;2023-02-12T08:49:18;103055.63;;;2.21;85.91
76726;BME280;65651;53.154;17.916;2023-02-12T08:51:49;103054.44;;;2.26;85.79
76726;BME280;65651;53.154;17.916;2023-02-12T08:54:22;103051.94;;;2.28;86.04
76726;BME280;65651;53.154;17.916;2023-02-12T08:56:55;103054.79;;;2.27;85.41
76726;BME280;65651;53.154;17.916;2023-02-12T08:59:23;103051.70;;;2.30;85.73
76726;BME280;65651;53.154;17.916;2023-02-12T09:01:52;103049.23;;;2.30;85.64
76726;BME280;65651;53.154;17.916;2023-02-12T09:04:22;103048.42;;;2.34;85.63
76726;BME280;65651;53.154;17.916;2023-02-12T09:06:50;103042.14;;;2.46;85.47
76726;BME280;65651;53.154;17.916;2023-02-12T09:09:19;103039.11;;;2.62;85.52
76726;BME280;65651;53.154;17.916;2023-02-12T09:11:50;103042.74;;;2.75;85.55
76726;BME280;65651;53.154;17.916;2023-02-12T09:14:18;103036.63;;;2.85;85.58
76726;BME280;65651;53.154;17.916;2023-02-12T09:16:52;103036.92;;;2.94;85.27
76726;BME280;65651;53.154;17.916;2023-02-12T09:19:23;103035.92;;;2.99;85.39
76726;BME280;65651;53.154;17.916;2023-02-12T09:21:53;103040.14;;;3.01;85.30
76726;BME280;65651;53.154;17.916;2023-02-12T09:24:20;103038.56;;;3.01;85.08
76726;BME280;65651;53.154;17.916;2023-02-12T09:26:50;103039.80;;;3.01;84.96
76726;BME280;65651;53.154;17.916;2023-02-12T09:29:17;103038.52;;;3.02;85.23
76726;BME280;65651;53.154;17.916;2023-02-12T09:31:44;103042.78;;;3.03;85.06
76726;BME280;65651;53.154;17.916;2023-02-12T09:34:12;103048.52;;;3.07;84.98
76726;BME280;65651;53.154;17.916;2023-02-12T09:36:39;103050.05;;;3.02;85.08
76726;BME280;65651;53.154;17.916;2023-02-12T09:39:07;103054.32;;;2.94;84.87
76726;BME280;65651;53.154;17.916;2023-02-12T09:52:50;103061.36;;;2.89;84.71
76726;BME280;65651;53.154;17.916;2023-02-12T09:55:18;103063.42;;;2.99;84.89
76726;BME280;65651;53.154;17.916;2023-02-12T09:57:46;103066.92;;;3.09;84.69
76726;BME280;65651;53.154;17.916;2023-02-12T10:00:26;103071.40;;;3.07;84.59
76726;BME280;65651;53.154;17.916;2023-02-12T10:02:54;103077.79;;;3.08;84.81
76726;BME280;65651;53.154;17.916;2023-02-12T10:05:26;103076.72;;;3.07;84.60
76726;BME280;65651;53.154;17.916;2023-02-12T10:08:09;103075.02;;;3.04;84.51
76726;BME280;65651;53.154;17.916;2023-02-12T10:10:52;103073.52;;;3.00;84.52
76726;BME280;65651;53.154;17.916;2023-02-12T10:24:04;103059.84;;;3.22;84.40
76726;BME280;65651;53.154;17.916;2023-02-12T10:26:41;103063.41;;;3.15;84.31
76726;BME280;65651;53.154;17.916;2023-02-12T10:29:16;103057.31;;;3.17;84.36
76726;BME280;65651;53.154;17.916;2023-02-12T10:32:20;103052.06;;;3.28;84.14
76726;BME280;65651;53.154;17.916;2023-02-12T10:34:51;103047.85;;;3.40;83.99
76726;BME280;65651;53.154;17.916;2023-02-12T10:37:38;103043.73;;;3.48;84.19
76726;BME280;65651;53.154;17.916;2023-02-12T10:40:30;103040.95;;;3.53;83.93
76726;BME280;65651;53.154;17.916;2023-02-12T10:43:01;103031.86;;;3.54;83.93
76726;BME280;65651;53.154;17.916;2023-02-12T10:45:32;103032.03;;;3.54;83.82
76726;BME280;65651;53.154;17.916;2023-02-12T10:48:16;103031.91;;;3.59;84.08
76726;BME280;65651;53.154;17.916;2023-02-12T10:53:44;103034.10;;;3.63;83.72
76726;BME280;65651;53.154;17.916;2023-02-12T10:58:50;103039.55;;;3.65;83.92
76726;BME280;65651;53.154;17.916;2023-02-12T11:01:28;103045.64;;;3.69;83.64
76726;BME280;65651;53.154;17.916;2023-02-12T11:03:58;103042.72;;;3.72;83.55
76726;BME280;65651;53.154;17.916;2023-02-12T11:06:29;103038.07;;;3.73;83.52
76726;BME280;65651;53.154;17.916;2023-02-12T11:08:58;103035.27;;;3.72;83.81
76726;BME280;65651;53.154;17.916;2023-02-12T11:11:30;103032.58;;;3.73;84.02
76726;BME280;65651;53.154;17.916;2023-02-12T11:14:08;103029.92;;;3.72;83.60
76726;BME280;65651;53.154;17.916;2023-02-12T11:16:50;103023.39;;;3.71;83.53
76726;BME280;65651;53.154;17.916;2023-02-12T11:19:30;103026.27;;;3.64;83.60
76726;BME280;65651;53.154;17.916;2023-02-12T11:22:12;103025.43;;;3.62;83.65
76726;BME280;65651;53.154;17.916;2023-02-12T11:24:45;103022.42;;;3.67;83.76
76726;BME280;65651;53.154;17.916;2023-02-12T11:27:25;103021.83;;;3.70;83.97
76726;BME280;65651;53.154;17.916;2023-02-12T11:30:14;103025.56;;;3.76;83.87
76726;BME280;65651;53.154;17.916;2023-02-12T11:32:43;103027.83;;;3.78;83.85
76726;BME280;65651;53.154;17.916;2023-02-12T11:35:24;103024.35;;;3.75;83.80
76726;BME280;65651;53.154;17.916;2023-02-12T11:37:56;103023.49;;;3.67;83.80
76726;BME280;65651;53.154;17.916;2023-02-12T11:40:29;103018.25;;;3.65;83.76
76726;BME280;65651;53.154;17.916;2023-02-12T11:43:01;103013.95;;;3.66;84.03
76726;BME280;65651;53.154;17.916;2023-02-12T11:45:36;103009.45;;;3.68;83.84
76726;BME280;65651;53.154;17.916;2023-02-12T11:48:19;103000.20;;;3.69;83.82
76726;BME280;65651;53.154;17.916;2023-02-12T11:50:51;102997.30;;;3.70;83.96
76726;BME280;65651;53.154;17.916;2023-02-12T11:53:31;102996.70;;;3.73;83.94
76726;BME280;65651;53.154;17.916;2023-02-12T11:56:03;103002.89;;;3.74;84.11
76726;BME280;65651;53.154;17.916;2023-02-12T11:58:31;103001.83;;;3.80;84.18
76726;BME280;65651;53.154;17.916;2023-02-12T12:06:50;102997.02;;;3.81;84.18
76726;BME280;65651;53.154;17.916;2023-02-12T12:09:38;102996.48;;;3.81;84.16
76726;BME280;65651;53.154;17.916;2023-02-12T12:15:02;102986.26;;;3.84;84.18
76726;BME280;65651;53.154;17.916;2023-02-12T12:17:57;102987.01;;;3.83;84.21
76726;BME280;65651;53.154;17.916;2023-02-12T12:20:52;102988.38;;;3.85;84.38
76726;BME280;65651;53.154;17.916;2023-02-12T12:26:07;102986.59;;;3.85;84.44
76726;BME280;65651;53.154;17.916;2023-02-12T12:34:03;102979.79;;;3.81;84.68
76726;BME280;65651;53.154;17.916;2023-02-12T12:39:38;102975.95;;;3.84;84.54
76726;BME280;65651;53.154;17.916;2023-02-12T12:48:02;102959.23;;;3.84;84.78
76726;BME280;65651;53.154;17.916;2023-02-12T13:04:41;102941.72;;;3.83;85.17
76726;BME280;65651;53.154;17.916;2023-02-12T13:15:38;102944.92;;;4.12;84.94
76726;BME280;65651;53.154;17.916;2023-02-12T13:18:30;102943.56;;;4.21;85.07
76726;BME280;65651;53.154;17.916;2023-02-12T13:21:12;102944.61;;;4.27;85.09
76726;BME280;65651;53.154;17.916;2023-02-12T13:27:02;102941.62;;;4.26;85.15
76726;BME280;65651;53.154;17.916;2023-02-12T13:29:46;102934.88;;;4.32;85.07
76726;BME280;65651;53.154;17.916;2023-02-12T13:32:34;102932.62;;;4.35;85.04
76726;BME280;65651;53.154;17.916;2023-02-12T13:35:05;102925.81;;;4.37;85.03
76726;BME280;65651;53.154;17.916;2023-02-12T13:37:43;102919.20;;;4.38;85.07
76726;BME280;65651;53.154;17.916;2023-02-12T13:40:18;102918.07;;;4.40;85.03
76726;BME280;65651;53.154;17.916;2023-02-12T13:48:22;102911.64;;;4.41;84.96
76726;BME280;65651;53.154;17.916;2023-02-12T13:56:50;102916.16;;;4.44;85.03
76726;BME280;65651;53.154;17.916;2023-02-12T14:02:23;102916.94;;;4.53;85.03
76726;BME280;65651;53.154;17.916;2023-02-12T14:07:20;102913.80;;;4.51;85.06
76726;BME280;65651;53.154;17.916;2023-02-12T14:12:35;102927.79;;;4.59;84.87
76726;BME280;65651;53.154;17.916;2023-02-12T14:15:19;102928.48;;;4.64;85.01
76726;BME280;65651;53.154;17.916;2023-02-12T14:20:30;102940.31;;;4.67;85.13
76726;BME280;65651;53.154;17.916;2023-02-12T14:25:32;102937.37;;;4.64;85.09
76726;BME280;65651;53.154;17.916;2023-02-12T14:28:06;102933.23;;;4.61;85.01
76726;BME280;65651;53.154;17.916;2023-02-12T14:30:38;102926.89;;;4.58;85.26
76726;BME280;65651;53.154;17.916;2023-02-12T14:35:39;102926.20;;;4.58;85.01
76726;BME280;65651;53.154;17.916;2023-02-12T14:40:47;102925.80;;;4.59;85.29
76726;BME280;65651;53.154;17.916;2023-02-12T14:43:31;102925.33;;;4.57;85.24
76726;BME280;65651;53.154;17.916;2023-02-12T14:48:55;102911.27;;;4.52;85.23
76726;BME280;65651;53.154;17.916;2023-02-12T14:51:35;102910.81;;;4.50;85.12
76726;BME280;65651;53.154;17.916;2023-02-12T14:54:14;102910.58;;;4.47;85.29
76726;BME280;65651;53.154;17.916;2023-02-12T14:56:47;102915.55;;;4.46;85.29
76726;BME280;65651;53.154;17.916;2023-02-12T14:59:19;102919.89;;;4.50;85.39
76726;BME280;65651;53.154;17.916;2023-02-12T15:01:50;102919.11;;;4.52;85.38
76726;BME280;65651;53.154;17.916;2023-02-12T15:04:29;102916.16;;;4.50;85.46
76726;BME280;65651;53.154;17.916;2023-02-12T15:07:07;102915.55;;;4.46;85.53
76726;BME280;65651;53.154;17.916;2023-02-12T15:15:42;102901.55;;;4.40;85.52
76726;BME280;65651;53.154;17.916;2023-02-12T15:18:17;102901.41;;;4.38;85.61
76726;BME280;65651;53.154;17.916;2023-02-12T15:20:55;102899.70;;;4.37;85.67
76726;BME280;65651;53.154;17.916;2023-02-12T15:23:43;102900.02;;;4.38;85.61
76726;BME280;65651;53.154;17.916;2023-02-12T15:26:15;102906.55;;;4.39;85.67
76726;BME280;65651;53.154;17.916;2023-02-12T15:28:45;102906.73;;;4.39;85.53
76726;BME280;65651;53.154;17.916;2023-02-12T15:31:20;102913.09;;;4.40;85.72
76726;BME280;65651;53.154;17.916;2023-02-12T15:33:49;102915.70;;;4.42;85.63
76726;BME280;65651;53.154;17.916;2023-02-12T15:36:23;102916.92;;;4.43;85.65
76726;BME280;65651;53.154;17.916;2023-02-12T15:39:03;102918.56;;;4.47;85.64
76726;BME280;65651;53.154;17.916;2023-02-12T15:44:16;102918.17;;;4.48;85.56
76726;BME280;65651;53.154;17.916;2023-02-12T15:49:36;102915.50;;;4.48;85.66
76726;BME280;65651;53.154;17.916;2023-02-12T15:52:17;102915.98;;;4.50;85.47
76726;BME280;65651;53.154;17.916;2023-02-12T15:54:47;102912.45;;;4.49;85.65
76726;BME280;65651;53.154;17.916;2023-02-12T15:57:21;102915.50;;;4.48;85.52